createdAt,value
2023-03-07T00:01:30.847Z,74.80
2023-03-07T00:04:00.251Z,69.93
2023-03-07T00:06:28.564Z,75.93
2023-03-07T00:08:58.773Z,72.03
2023-03-07T00:11:27.724Z,75.67
2023-03-07T00:13:56.149Z,71.53
2023-03-07T00:16:26.402Z,71.20
2023-03-07T00:18:55.418Z,71.27
2023-03-07T00:21:23.827Z,68.83
2023-03-07T00:23:53.952Z,56.93
2023-03-07T00:26:23.643Z,59.53
2023-03-07T00:28:53.004Z,57.47
2023-03-07T00:31:21.991Z,52.43
2023-03-07T00:33:51.896Z,49.57
2023-03-07T00:36:21.438Z,50.77
2023-03-07T00:38:50.042Z,50.20
2023-03-07T00:41:20.159Z,47.97
2023-03-07T00:43:48.132Z,46.13
2023-03-07T00:46:17.389Z,45.53
2023-03-07T00:48:45.757Z,49.47
2023-03-07T00:51:17.229Z,48.83
2023-03-07T00:53:45.659Z,45.33
2023-03-07T00:56:15.786Z,42.67
2023-03-07T00:58:46.462Z,46.13
2023-03-07T01:01:16.390Z,52.30
2023-03-07T01:03:45.471Z,47.13
2023-03-07T01:06:16.779Z,45.77
2023-03-07T01:08:45.346Z,48.43
2023-03-07T01:11:15.789Z,43.30
2023-03-07T01:13:44.328Z,45.40
2023-03-07T01:16:15.211Z,48.20
2023-03-07T01:18:44.504Z,46.50
2023-03-07T01:21:17.275Z,44.83
2023-03-07T01:23:46.346Z,44.27
2023-03-07T01:26:15.665Z,51.10
2023-03-07T01:28:44.373Z,53.80
2023-03-07T01:31:13.305Z,43.57
2023-03-07T01:33:42.392Z,44.50
2023-03-07T01:36:25.496Z,47.70
2023-03-07T01:38:56.230Z,38.33
2023-03-07T01:41:24.947Z,38.20
2023-03-07T01:43:54.088Z,41.23
2023-03-07T01:46:40.134Z,41.50
2023-03-07T01:49:12.340Z,38.83
2023-03-07T01:51:45.055Z,39.50
2023-03-07T01:54:17.038Z,35.87
2023-03-07T01:56:46.683Z,40.87
2023-03-07T01:59:17.834Z,40.57
2023-03-07T02:01:46.371Z,42.33
2023-03-07T02:04:20.529Z,37.63
2023-03-07T02:06:49.854Z,33.97
2023-03-07T02:09:21.607Z,37.57
2023-03-07T02:11:51.032Z,36.33
2023-03-07T02:14:19.568Z,36.30
2023-03-07T02:16:47.745Z,36.63
2023-03-07T02:19:31.337Z,37.93
2023-03-07T02:22:10.262Z,31.47
2023-03-07T02:24:44.581Z,33.40
2023-03-07T02:27:15.462Z,35.53
2023-03-07T02:29:44.009Z,40.93
2023-03-07T02:32:12.887Z,42.60
2023-03-07T02:34:40.915Z,39.43
2023-03-07T02:37:20.159Z,38.77
2023-03-07T02:39:49.621Z,39.47
2023-03-07T02:42:24.005Z,39.43
2023-03-07T02:44:59.127Z,37.80
2023-03-07T02:47:29.509Z,43.87
2023-03-07T02:49:58.843Z,38.33
2023-03-07T02:52:28.002Z,39.07
2023-03-07T02:54:56.217Z,35.60
2023-03-07T02:57:27.944Z,40.47
2023-03-07T02:59:56.050Z,42.27
2023-03-07T03:02:24.056Z,39.67
2023-03-07T03:04:52.083Z,39.33
2023-03-07T03:07:23.346Z,41.07
2023-03-07T03:09:51.272Z,42.70
2023-03-07T03:12:19.338Z,38.53
2023-03-07T03:14:48.678Z,43.60
2023-03-07T03:17:18.663Z,43.10
2023-03-07T03:19:46.559Z,45.17
2023-03-07T03:22:14.618Z,47.40
2023-03-07T03:24:46.371Z,43.23
2023-03-07T03:27:17.530Z,53.50
2023-03-07T03:29:49.290Z,50.97
2023-03-07T03:32:17.722Z,49.17
2023-03-07T03:34:47.425Z,49.37
2023-03-07T03:37:15.407Z,53.13
2023-03-07T03:39:43.894Z,57.07
2023-03-07T03:42:14.197Z,65.00
2023-03-07T03:44:42.954Z,66.83
2023-03-07T03:47:12.363Z,72.13
2023-03-07T03:49:41.021Z,75.53
2023-03-07T03:52:10.607Z,94.13
2023-03-07T03:54:38.808Z,65.63
2023-03-07T03:57:07.751Z,80.50
2023-03-07T03:59:35.669Z,76.37
2023-03-07T04:02:03.776Z,74.27
2023-03-07T04:04:33.146Z,94.03
2023-03-07T04:07:01.091Z,86.73
2023-03-07T04:09:29.260Z,106.50
2023-03-07T04:11:57.186Z,85.80
2023-03-07T04:14:25.623Z,89.83
2023-03-07T04:16:53.822Z,93.97
2023-03-07T04:19:22.199Z,95.70
2023-03-07T04:21:51.917Z,87.70
2023-03-07T04:24:20.111Z,110.17
2023-03-07T04:26:48.656Z,81.37
2023-03-07T04:29:16.974Z,90.60
2023-03-07T04:31:51.917Z,83.20
2023-03-07T04:34:19.874Z,100.03
2023-03-07T04:36:47.843Z,80.87
2023-03-07T04:39:17.147Z,91.27
2023-03-07T04:41:46.505Z,79.57
2023-03-07T04:44:21.116Z,74.43
2023-03-07T04:46:49.163Z,80.57
2023-03-07T04:49:17.763Z,86.23
2023-03-07T04:51:45.704Z,72.97
2023-03-07T04:54:17.778Z,72.23
2023-03-07T04:56:48.243Z,71.87
2023-03-07T04:59:16.821Z,70.87
2023-03-07T05:01:44.933Z,71.70
2023-03-07T05:04:12.930Z,89.33
2023-03-07T05:06:40.852Z,73.47
2023-03-07T05:09:10.144Z,84.23
2023-03-07T05:11:39.675Z,74.70
2023-03-07T05:14:09.015Z,81.00
2023-03-07T05:16:37.238Z,86.23
2023-03-07T05:19:06.293Z,77.10
2023-03-07T05:21:34.852Z,64.47
2023-03-07T05:24:04.689Z,66.17
2023-03-07T05:26:34.121Z,72.30
2023-03-07T05:29:04.131Z,67.67
2023-03-07T05:31:32.236Z,73.10
2023-03-07T05:34:00.805Z,86.47
2023-03-07T05:36:28.967Z,71.40
2023-03-07T05:38:57.113Z,59.87
2023-03-07T05:41:25.829Z,62.07
2023-03-07T05:43:55.270Z,70.53
2023-03-07T05:46:25.377Z,78.13
2023-03-07T05:48:53.578Z,60.60
2023-03-07T05:51:21.565Z,77.80
2023-03-07T05:53:50.202Z,64.63
2023-03-07T05:56:18.750Z,59.90
2023-03-07T05:58:46.915Z,71.10
2023-03-07T06:01:15.320Z,71.40
2023-03-07T06:03:44.989Z,79.87
2023-03-07T06:06:13.327Z,78.40
2023-03-07T06:08:42.500Z,95.23
2023-03-07T06:11:11.325Z,99.43
2023-03-07T06:13:40.440Z,97.67
2023-03-07T06:16:09.146Z,100.03
2023-03-07T06:18:42.294Z,106.83
2023-03-07T06:21:17.003Z,95.23
2023-03-07T06:23:48.163Z,116.07
2023-03-07T06:26:20.545Z,117.30
2023-03-07T06:28:52.420Z,113.90
2023-03-07T06:31:21.695Z,116.17
2023-03-07T06:33:49.870Z,127.13
2023-03-07T06:36:21.679Z,134.53
2023-03-07T06:38:55.905Z,138.70
2023-03-07T06:41:25.071Z,126.60
2023-03-07T06:43:55.110Z,114.70
2023-03-07T06:46:28.176Z,121.07
2023-03-07T06:48:57.147Z,126.73
2023-03-07T06:51:27.051Z,101.37
2023-03-07T06:53:57.975Z,122.13
2023-03-07T06:56:26.594Z,120.67
2023-03-07T06:58:54.761Z,128.77
2023-03-07T07:01:23.975Z,88.47
2023-03-07T07:03:54.149Z,89.83
2023-03-07T07:06:22.215Z,93.90
2023-03-07T07:08:55.467Z,97.93
2023-03-07T07:11:24.487Z,95.67
2023-03-07T07:13:52.632Z,98.33
2023-03-07T07:16:22.088Z,89.00
2023-03-07T07:18:51.656Z,97.63
2023-03-07T07:21:20.245Z,92.43
2023-03-07T07:23:48.763Z,84.63
2023-03-07T07:26:18.076Z,98.93
2023-03-07T07:28:46.541Z,93.33
2023-03-07T07:31:14.642Z,98.60
2023-03-07T07:33:43.024Z,103.03
2023-03-07T07:36:11.533Z,90.13
2023-03-07T07:38:40.207Z,99.30
2023-03-07T07:41:08.284Z,91.00
2023-03-07T07:43:37.730Z,81.40
2023-03-07T07:46:14.184Z,71.93
2023-03-07T07:48:42.378Z,72.83
2023-03-07T07:51:10.999Z,103.83
2023-03-07T07:53:39.354Z,94.47
2023-03-07T07:56:07.829Z,87.80
2023-03-07T07:58:37.312Z,96.30
2023-03-07T08:01:14.463Z,76.83
2023-03-07T08:03:42.566Z,77.70
2023-03-07T08:06:10.934Z,79.43
2023-03-07T08:08:39.688Z,84.07
2023-03-07T08:11:08.426Z,75.33
2023-03-07T08:13:37.791Z,74.17
2023-03-07T08:16:10.914Z,61.23
2023-03-07T08:18:39.017Z,63.20
2023-03-07T08:21:07.408Z,72.50
2023-03-07T08:23:35.812Z,57.00
2023-03-07T08:26:06.120Z,58.63
2023-03-07T08:28:34.635Z,64.37
2023-03-07T08:31:09.489Z,54.50
2023-03-07T08:33:37.600Z,59.13
2023-03-07T08:36:06.492Z,55.03
2023-03-07T08:38:34.771Z,55.40
2023-03-07T08:41:03.870Z,64.13
2023-03-07T08:43:33.101Z,55.53
2023-03-07T08:46:01.615Z,56.70
2023-03-07T08:48:31.159Z,48.77
2023-03-07T08:50:59.107Z,46.67
2023-03-07T08:53:27.020Z,44.20
2023-03-07T08:55:54.940Z,44.30
2023-03-07T08:58:22.857Z,48.23
2023-03-07T09:00:50.747Z,45.43
2023-03-07T09:03:18.664Z,39.93
2023-03-07T09:05:48.025Z,49.27
2023-03-07T09:08:16.005Z,42.47
2023-03-07T09:10:43.965Z,41.77
2023-03-07T09:13:14.119Z,44.77
2023-03-07T09:15:42.693Z,50.17
2023-03-07T09:18:11.274Z,43.40
2023-03-07T09:20:39.854Z,48.53
2023-03-07T09:23:10.112Z,39.60
2023-03-07T09:25:39.697Z,36.97
2023-03-07T09:28:07.615Z,40.60
2023-03-07T09:30:35.552Z,34.97
2023-03-07T09:33:04.134Z,45.70
2023-03-07T09:35:32.142Z,39.10
2023-03-07T09:38:00.299Z,45.33
2023-03-07T09:40:29.706Z,40.53
2023-03-07T09:43:04.654Z,41.03
2023-03-07T09:45:45.654Z,34.07
2023-03-07T09:48:45.315Z,34.27
2023-03-07T09:51:19.544Z,40.30
2023-03-07T09:53:52.437Z,33.87
2023-03-07T09:56:25.215Z,36.17
2023-03-07T09:59:02.537Z,36.87
2023-03-07T10:01:34.508Z,38.67
2023-03-07T10:04:04.459Z,38.47
2023-03-07T10:06:38.563Z,36.10
2023-03-07T10:09:13.299Z,42.73
2023-03-07T10:12:04.846Z,45.53
2023-03-07T10:14:47.387Z,38.23
2023-03-07T10:17:26.561Z,41.67
2023-03-07T10:19:58.277Z,38.67
2023-03-07T10:22:36.825Z,42.10
2023-03-07T10:25:14.468Z,44.60
2023-03-07T10:27:45.551Z,42.07
2023-03-07T10:30:17.898Z,47.13
2023-03-07T10:32:48.091Z,43.23
2023-03-07T10:35:22.090Z,41.37
2023-03-07T10:37:51.941Z,45.30
2023-03-07T10:40:25.774Z,43.60
2023-03-07T10:42:55.767Z,47.03
2023-03-07T10:45:24.102Z,50.23
2023-03-07T10:47:52.129Z,53.87
2023-03-07T10:50:35.902Z,49.43
2023-03-07T10:53:09.291Z,48.10
2023-03-07T10:55:42.315Z,49.90
2023-03-07T10:58:21.021Z,56.60
2023-03-07T11:01:03.655Z,49.30
2023-03-07T11:03:49.577Z,51.53
2023-03-07T11:06:36.786Z,47.63
2023-03-07T11:09:20.013Z,44.03
2023-03-07T11:11:54.221Z,47.47
2023-03-07T11:14:24.736Z,50.87
2023-03-07T11:16:55.585Z,46.70
2023-03-07T11:19:39.755Z,45.57
2023-03-07T11:22:22.882Z,41.60
2023-03-07T11:25:05.356Z,48.70
2023-03-07T11:27:37.236Z,48.30
2023-03-07T11:30:25.868Z,42.40
2023-03-07T11:33:00.340Z,46.50
2023-03-07T11:35:49.744Z,47.37
2023-03-07T11:38:29.265Z,44.73
2023-03-07T11:41:04.049Z,47.03
2023-03-07T11:43:54.383Z,44.13
2023-03-07T11:46:33.134Z,47.60
2023-03-07T11:49:08.975Z,46.60
2023-03-07T11:51:55.878Z,45.57
2023-03-07T11:54:32.068Z,46.47
2023-03-07T11:57:11.144Z,50.50
2023-03-07T11:59:55.847Z,48.70
2023-03-07T12:02:43.593Z,50.97
2023-03-07T12:05:22.032Z,48.30
2023-03-07T12:08:06.907Z,42.70
2023-03-07T12:10:47.289Z,50.47
2023-03-07T12:13:31.929Z,46.73
2023-03-07T12:16:12.125Z,51.43
2023-03-07T12:19:10.565Z,42.47
2023-03-07T12:22:02.393Z,43.67
2023-03-07T12:24:36.166Z,37.43
2023-03-07T12:27:11.360Z,37.00
2023-03-07T12:29:42.812Z,36.63
2023-03-07T12:32:17.086Z,38.17
2023-03-07T12:34:52.974Z,37.60
2023-03-07T12:37:26.107Z,38.77
2023-03-07T12:39:56.867Z,33.53
2023-03-07T12:42:34.157Z,33.03
2023-03-07T12:45:09.143Z,38.13
2023-03-07T12:47:51.139Z,32.83
2023-03-07T12:50:24.773Z,35.40
2023-03-07T12:52:56.161Z,35.70
2023-03-07T12:55:27.663Z,36.17
2023-03-07T12:58:05.053Z,34.00
2023-03-07T13:00:35.550Z,33.30
2023-03-07T13:03:06.599Z,37.57
2023-03-07T13:05:38.089Z,37.60
2023-03-07T13:08:08.578Z,31.47
2023-03-07T13:10:37.149Z,37.43
2023-03-07T13:13:44.045Z,34.33
2023-03-07T13:16:13.748Z,38.77
2023-03-07T13:18:41.756Z,36.97
2023-03-07T13:21:32.070Z,35.37
2023-03-07T13:24:34.038Z,32.70
2023-03-07T13:27:02.219Z,35.07
2023-03-07T13:30:19.138Z,41.53
2023-03-07T13:32:58.140Z,30.50
2023-03-07T13:35:55.804Z,40.57
2023-03-07T13:38:34.143Z,29.17
2023-03-07T13:41:02.740Z,26.47
2023-03-07T13:43:50.423Z,31.50
2023-03-07T13:47:01.199Z,31.17
2023-03-07T13:49:46.240Z,31.67
2023-03-07T13:52:34.014Z,30.63
2023-03-07T13:55:14.338Z,29.43
2023-03-07T13:57:44.608Z,33.63
2023-03-07T14:00:35.065Z,28.27
2023-03-07T14:03:03.336Z,28.83
2023-03-07T14:05:35.075Z,25.60
2023-03-07T14:08:03.980Z,27.40
2023-03-07T14:10:33.465Z,27.17
2023-03-07T14:13:26.251Z,21.57
2023-03-07T14:16:04.352Z,27.90
2023-03-07T14:18:45.687Z,25.67
2023-03-07T14:21:21.214Z,28.03
2023-03-07T14:24:08.479Z,27.47
2023-03-07T14:26:40.144Z,32.93
2023-03-07T14:29:17.713Z,26.70
2023-03-07T14:31:47.216Z,27.33
2023-03-07T14:34:20.509Z,26.77
2023-03-07T14:36:52.403Z,29.33
2023-03-07T14:39:21.932Z,27.70
2023-03-07T14:42:00.975Z,26.03
2023-03-07T14:45:02.278Z,29.20
2023-03-07T14:47:47.577Z,29.90
2023-03-07T14:50:18.724Z,26.13
2023-03-07T14:52:48.160Z,29.87
2023-03-07T14:55:19.759Z,23.93
2023-03-07T14:57:53.047Z,29.27
2023-03-07T15:00:28.346Z,26.33
2023-03-07T15:02:58.628Z,28.93
2023-03-07T15:05:29.521Z,24.93
2023-03-07T15:07:57.691Z,30.73
2023-03-07T15:10:30.695Z,26.97
2023-03-07T15:13:00.529Z,33.23
2023-03-07T15:15:34.300Z,22.23
2023-03-07T15:18:06.762Z,23.53
2023-03-07T15:20:35.492Z,24.63
2023-03-07T15:23:07.504Z,22.27
2023-03-07T15:25:38.923Z,22.83
2023-03-07T15:28:18.604Z,21.80
2023-03-07T15:30:52.108Z,21.83
2023-03-07T15:33:25.915Z,26.40
2023-03-07T15:36:18.146Z,21.40
2023-03-07T15:38:48.094Z,23.20
2023-03-07T15:41:33.302Z,28.40
2023-03-07T15:44:08.514Z,21.10
2023-03-07T15:46:39.179Z,23.43
2023-03-07T15:49:07.574Z,24.63
2023-03-07T15:51:38.674Z,23.47
2023-03-07T15:54:23.056Z,24.70
2023-03-07T15:56:56.789Z,24.23
2023-03-07T15:59:30.649Z,23.20
2023-03-07T16:01:58.694Z,26.83
2023-03-07T16:04:36.887Z,23.63
2023-03-07T16:07:06.386Z,23.23
2023-03-07T16:09:34.619Z,22.10
2023-03-07T16:12:03.104Z,20.33
2023-03-07T16:14:34.318Z,23.97
2023-03-07T16:17:05.493Z,25.53
2023-03-07T16:19:33.437Z,28.83
2023-03-07T16:22:01.366Z,28.17
2023-03-07T16:24:29.377Z,27.73
2023-03-07T16:26:57.851Z,23.50
2023-03-07T16:29:25.922Z,24.30
2023-03-07T16:31:55.247Z,25.97
2023-03-07T16:34:23.935Z,20.33
2023-03-07T16:36:51.927Z,21.57
2023-03-07T16:39:19.926Z,24.70
2023-03-07T16:41:50.107Z,19.50
2023-03-07T16:44:19.158Z,19.00
2023-03-07T16:46:52.461Z,22.23
2023-03-07T16:49:21.984Z,20.47
2023-03-07T16:52:04.534Z,21.57
2023-03-07T16:54:33.834Z,21.63
2023-03-07T16:57:03.528Z,22.53
2023-03-07T16:59:35.488Z,19.30
2023-03-07T17:02:11.681Z,23.00
2023-03-07T17:04:42.704Z,22.93
2023-03-07T17:07:17.126Z,21.77
2023-03-07T17:09:45.327Z,22.20
2023-03-07T17:12:13.608Z,25.93
2023-03-07T17:14:42.292Z,24.67
2023-03-07T17:17:17.711Z,23.90
2023-03-07T17:19:47.062Z,25.57
2023-03-07T17:22:15.114Z,22.90
2023-03-07T17:24:43.115Z,26.63
2023-03-07T17:27:11.291Z,25.13
2023-03-07T17:29:42.142Z,26.33
2023-03-07T17:32:10.836Z,29.27
2023-03-07T17:34:39.468Z,26.47
2023-03-07T17:37:09.540Z,24.57
2023-03-07T17:39:37.959Z,26.13
2023-03-07T17:42:08.668Z,26.37
2023-03-07T17:44:36.932Z,25.77
2023-03-07T17:47:05.014Z,25.57
2023-03-07T17:49:37.614Z,26.13
2023-03-07T17:52:07.341Z,25.93
2023-03-07T17:54:36.770Z,34.50
2023-03-07T17:57:04.935Z,29.13
2023-03-07T17:59:33.535Z,30.97
2023-03-07T18:02:01.696Z,30.40
2023-03-07T18:04:31.303Z,31.70
2023-03-07T18:06:59.389Z,28.10
2023-03-07T18:09:27.379Z,31.97
2023-03-07T18:11:57.145Z,32.27
2023-03-07T18:14:25.331Z,30.10
2023-03-07T18:16:54.229Z,29.23
2023-03-07T18:19:26.735Z,35.43
2023-03-07T18:21:55.755Z,28.03
2023-03-07T18:24:27.107Z,32.87
2023-03-07T18:26:59.048Z,26.67
2023-03-07T18:29:28.360Z,26.93
2023-03-07T18:31:56.495Z,25.77
2023-03-07T18:34:25.031Z,27.37
2023-03-07T18:36:54.236Z,25.97
2023-03-07T18:39:23.486Z,24.87
2023-03-07T18:41:52.301Z,26.37
2023-03-07T18:44:21.693Z,26.93
2023-03-07T18:46:57.978Z,28.17
2023-03-07T18:49:26.501Z,28.40
2023-03-07T18:51:54.518Z,26.67
2023-03-07T18:54:22.478Z,27.60
2023-03-07T18:56:50.403Z,26.73
2023-03-07T18:59:19.037Z,24.63
2023-03-07T19:01:50.238Z,23.17
2023-03-07T19:04:19.105Z,26.77
2023-03-07T19:06:48.235Z,30.53
2023-03-07T19:09:18.006Z,28.40
2023-03-07T19:11:46.203Z,28.70
2023-03-07T19:14:14.654Z,31.67
2023-03-07T19:16:42.706Z,32.27
2023-03-07T19:19:12.077Z,29.83
2023-03-07T19:21:40.034Z,25.70
2023-03-07T19:24:11.400Z,26.93
2023-03-07T19:26:40.864Z,27.47
2023-03-07T19:29:09.756Z,23.13
2023-03-07T19:31:37.888Z,22.80
2023-03-07T19:34:06.456Z,22.80
2023-03-07T19:36:37.269Z,23.50
2023-03-07T19:39:06.083Z,20.83
2023-03-07T19:41:35.712Z,23.03
2023-03-07T19:44:06.469Z,20.63
2023-03-07T19:46:34.597Z,19.83
2023-03-07T19:49:02.665Z,19.57
2023-03-07T19:51:30.700Z,19.67
2023-03-07T19:54:00.010Z,22.07
2023-03-07T19:56:29.794Z,22.00
2023-03-07T19:58:58.538Z,19.07
2023-03-07T20:01:27.537Z,17.57
2023-03-07T20:03:55.757Z,21.27
2023-03-07T20:06:25.853Z,18.57
2023-03-07T20:08:55.654Z,20.20
2023-03-07T20:11:27.456Z,20.70
2023-03-07T20:13:57.040Z,20.97
2023-03-07T20:16:29.149Z,21.33
2023-03-07T20:19:00.465Z,22.57
2023-03-07T20:21:30.164Z,18.93
2023-03-07T20:24:00.175Z,21.07
2023-03-07T20:26:31.706Z,19.40
2023-03-07T20:29:00.352Z,18.90
2023-03-07T20:31:29.218Z,15.80
2023-03-07T20:33:59.337Z,19.23
2023-03-07T20:36:29.426Z,17.47
2023-03-07T20:38:59.350Z,16.87
2023-03-07T20:41:30.411Z,23.63
2023-03-07T20:44:00.783Z,18.53
2023-03-07T20:46:30.321Z,15.53
2023-03-07T20:48:59.445Z,14.87
2023-03-07T20:51:30.410Z,17.97
2023-03-07T20:54:00.141Z,21.87
2023-03-07T20:56:31.110Z,16.57
2023-03-07T20:58:59.856Z,15.87
2023-03-07T21:01:29.766Z,16.03
2023-03-07T21:04:00.312Z,14.13
2023-03-07T21:06:28.513Z,17.20
2023-03-07T21:08:59.359Z,13.37
2023-03-07T21:11:31.376Z,15.07
2023-03-07T21:13:59.430Z,14.97
2023-03-07T21:16:28.112Z,11.77
2023-03-07T21:19:01.286Z,11.83
2023-03-07T21:21:30.832Z,11.73
2023-03-07T21:23:59.576Z,13.90
2023-03-07T21:26:31.160Z,12.37
2023-03-07T21:28:59.682Z,14.87
2023-03-07T21:31:29.032Z,11.47
2023-03-07T21:33:59.074Z,15.97
2023-03-07T21:36:29.126Z,15.03
2023-03-07T21:38:57.289Z,14.83
2023-03-07T21:41:26.125Z,13.10
2023-03-07T21:43:56.518Z,15.20
2023-03-07T21:46:25.222Z,15.47
2023-03-07T21:48:53.509Z,14.63
2023-03-07T21:51:22.222Z,17.40
2023-03-07T21:53:50.206Z,14.13
2023-03-07T21:56:18.743Z,14.93
2023-03-07T21:58:49.461Z,17.67
2023-03-07T22:01:20.434Z,14.80
2023-03-07T22:03:48.966Z,15.47
2023-03-07T22:06:17.291Z,12.80
2023-03-07T22:08:45.425Z,7.90
2023-03-07T22:11:14.395Z,11.10
2023-03-07T22:13:43.472Z,7.13
2023-03-07T22:16:13.845Z,9.37
2023-03-07T22:18:43.300Z,10.47
2023-03-07T22:21:14.024Z,7.93
2023-03-07T22:23:42.984Z,11.83
2023-03-07T22:26:12.427Z,12.30
2023-03-07T22:28:41.497Z,8.57
2023-03-07T22:31:12.245Z,8.03
2023-03-07T22:33:40.552Z,12.37
2023-03-07T22:36:13.060Z,18.60
2023-03-07T22:38:41.843Z,13.70
2023-03-07T22:41:12.761Z,7.93
2023-03-07T22:43:41.174Z,8.30
2023-03-07T22:46:09.820Z,7.40
2023-03-07T22:48:38.047Z,8.97
2023-03-07T22:51:10.878Z,6.57
2023-03-07T22:53:40.196Z,7.70
2023-03-07T22:56:15.415Z,6.87
2023-03-07T22:58:43.741Z,8.03
2023-03-07T23:01:14.164Z,10.77
2023-03-07T23:03:42.309Z,9.10
2023-03-07T23:06:10.590Z,11.30
2023-03-07T23:08:40.133Z,15.07
2023-03-07T23:11:10.029Z,10.07
2023-03-07T23:13:38.242Z,9.27
2023-03-07T23:16:09.795Z,9.43
2023-03-07T23:18:38.992Z,6.40
2023-03-07T23:21:08.425Z,8.70
2023-03-07T23:23:36.454Z,9.00
2023-03-07T23:26:06.742Z,7.03
2023-03-07T23:28:35.013Z,9.57
2023-03-07T23:31:03.477Z,11.67
2023-03-07T23:33:31.421Z,11.93
2023-03-07T23:36:00.401Z,12.63
2023-03-07T23:38:28.430Z,8.80
2023-03-07T23:40:56.356Z,8.83
2023-03-07T23:43:25.639Z,9.73
2023-03-07T23:45:53.670Z,11.23
2023-03-07T23:48:21.655Z,10.30
2023-03-07T23:50:49.983Z,8.10
2023-03-07T23:53:17.969Z,8.87
2023-03-07T23:55:45.933Z,9.73
2023-03-07T23:58:13.913Z,10.20
